createdAt,value
2023-05-03T00:00:12.624Z,4.20
2023-05-03T00:02:40.270Z,3.95
2023-05-03T00:05:12.809Z,4.10
2023-05-03T00:07:41.897Z,4.13
2023-05-03T00:10:10.690Z,4.28
2023-05-03T00:12:39.548Z,3.65
2023-05-03T00:15:07.139Z,3.25
2023-05-03T00:17:33.678Z,4.00
2023-05-03T00:20:00.439Z,3.70
2023-05-03T00:22:27.980Z,4.85
2023-05-03T00:24:54.737Z,3.63
2023-05-03T00:27:21.270Z,3.80
2023-05-03T00:29:51.518Z,3.38
2023-05-03T00:32:22.845Z,3.78
2023-05-03T00:34:53.935Z,3.45
2023-05-03T00:37:21.210Z,3.47
2023-05-03T00:39:47.825Z,3.60
2023-05-03T00:42:14.357Z,3.97
2023-05-03T00:44:40.899Z,4.25
2023-05-03T00:47:08.469Z,3.78
2023-05-03T00:49:35.434Z,3.53
2023-05-03T00:52:02.663Z,4.00
2023-05-03T00:54:30.093Z,4.25
2023-05-03T00:56:57.013Z,3.47
2023-05-03T00:59:23.612Z,3.92
2023-05-03T01:01:52.113Z,3.78
2023-05-03T01:04:20.412Z,3.90
2023-05-03T01:07:06.506Z,4.15
2023-05-03T01:09:49.191Z,3.33
2023-05-03T01:12:55.652Z,3.60
2023-05-03T01:15:48.393Z,4.00
2023-05-03T01:18:20.322Z,3.55
2023-05-03T01:20:49.394Z,4.18
2023-05-03T01:23:54.623Z,3.75
2023-05-03T01:26:22.930Z,3.35
2023-05-03T01:28:49.805Z,3.92
2023-05-03T01:31:23.805Z,3.40
2023-05-03T01:34:15.642Z,3.13
2023-05-03T01:36:46.140Z,3.70
2023-05-03T01:39:21.120Z,3.97
2023-05-03T01:41:50.535Z,3.30
2023-05-03T01:44:18.315Z,3.60
2023-05-03T01:46:45.877Z,3.38
2023-05-03T01:49:13.276Z,3.63
2023-05-03T01:51:39.986Z,3.25
2023-05-03T01:54:06.781Z,3.72
2023-05-03T01:56:36.322Z,4.07
2023-05-03T01:59:03.985Z,3.80
2023-05-03T02:01:30.848Z,3.25
2023-05-03T02:03:57.498Z,3.30
2023-05-03T02:06:26.001Z,3.53
2023-05-03T02:08:53.433Z,3.88
2023-05-03T02:11:21.580Z,3.22
2023-05-03T02:13:49.956Z,3.40
2023-05-03T02:16:18.389Z,3.13
2023-05-03T02:18:45.190Z,3.75
2023-05-03T02:21:12.144Z,4.13
2023-05-03T02:23:39.269Z,3.65
2023-05-03T02:26:06.667Z,3.47
2023-05-03T02:28:33.283Z,3.53
2023-05-03T02:30:59.805Z,3.92
2023-05-03T02:33:26.371Z,3.40
2023-05-03T02:35:52.984Z,3.60
2023-05-03T02:38:19.467Z,3.63
2023-05-03T02:40:45.971Z,3.50
2023-05-03T02:43:12.464Z,3.22
2023-05-03T02:45:39.000Z,3.83
2023-05-03T02:48:06.205Z,3.13
2023-05-03T02:50:32.756Z,3.80
2023-05-03T02:52:59.316Z,3.80
2023-05-03T02:55:26.215Z,3.58
2023-05-03T02:57:52.734Z,3.70
2023-05-03T03:00:19.629Z,4.22
2023-05-03T03:02:46.595Z,4.32
2023-05-03T03:05:13.483Z,4.10
2023-05-03T03:07:40.371Z,3.70
2023-05-03T03:10:08.267Z,3.63
2023-05-03T03:12:38.135Z,3.67
2023-05-03T03:15:05.309Z,3.50
2023-05-03T03:17:32.143Z,3.30
2023-05-03T03:19:58.708Z,3.75
2023-05-03T03:22:26.887Z,3.85
2023-05-03T03:24:53.594Z,3.45
2023-05-03T03:27:21.992Z,4.05
2023-05-03T03:29:48.546Z,3.90
2023-05-03T03:32:15.529Z,3.22
2023-05-03T03:34:42.192Z,4.07
2023-05-03T03:37:08.713Z,3.85
2023-05-03T03:39:35.487Z,3.70
2023-05-03T03:42:03.786Z,3.67
2023-05-03T03:44:30.319Z,3.95
2023-05-03T03:46:56.830Z,4.10
2023-05-03T03:49:24.132Z,4.20
2023-05-03T03:51:50.801Z,4.25
2023-05-03T03:54:17.323Z,3.58
2023-05-03T03:56:44.030Z,4.65
2023-05-03T03:59:10.743Z,3.85
2023-05-03T04:01:37.330Z,4.20
2023-05-03T04:04:04.878Z,3.70
2023-05-03T04:06:33.127Z,4.65
2023-05-03T04:08:59.648Z,6.28
2023-05-03T04:11:26.311Z,4.20
2023-05-03T04:13:52.883Z,4.30
2023-05-03T04:16:19.419Z,4.53
2023-05-03T04:18:45.965Z,4.43
2023-05-03T04:21:12.564Z,4.78
2023-05-03T04:23:39.454Z,4.35
2023-05-03T04:26:06.557Z,5.20
2023-05-03T04:28:34.093Z,4.80
2023-05-03T04:31:00.806Z,4.30
2023-05-03T04:33:30.153Z,4.55
2023-05-03T04:35:57.185Z,4.63
2023-05-03T04:38:23.918Z,4.90
2023-05-03T04:40:50.419Z,4.75
2023-05-03T04:43:18.482Z,5.18
2023-05-03T04:45:45.044Z,4.50
2023-05-03T04:48:11.603Z,4.80
2023-05-03T04:50:38.359Z,4.60
2023-05-03T04:53:04.963Z,5.18
2023-05-03T04:55:31.741Z,5.18
2023-05-03T04:57:58.372Z,4.60
2023-05-03T05:00:25.176Z,4.65
2023-05-03T05:02:51.839Z,5.72
2023-05-03T05:05:20.272Z,4.82
2023-05-03T05:07:47.912Z,4.63
2023-05-03T05:10:17.184Z,5.05
2023-05-03T05:12:43.767Z,5.15
2023-05-03T05:15:11.024Z,5.70
2023-05-03T05:17:37.700Z,5.03
2023-05-03T05:20:07.341Z,5.55
2023-05-03T05:22:34.518Z,5.63
2023-05-03T05:25:01.012Z,5.43
2023-05-03T05:27:28.089Z,5.32
2023-05-03T05:29:54.637Z,5.28
2023-05-03T05:32:22.450Z,5.97
2023-05-03T05:34:55.185Z,5.45
2023-05-03T05:37:23.029Z,5.35
2023-05-03T05:39:49.679Z,5.65
2023-05-03T05:42:16.217Z,4.97
2023-05-03T05:44:43.137Z,5.95
2023-05-03T05:47:10.139Z,5.97
2023-05-03T05:49:36.997Z,4.70
2023-05-03T05:52:03.587Z,5.30
2023-05-03T05:54:30.604Z,6.93
2023-05-03T05:56:58.152Z,4.60
2023-05-03T05:59:24.712Z,6.93
2023-05-03T06:01:54.378Z,4.68
2023-05-03T06:04:20.988Z,5.15
2023-05-03T06:06:48.094Z,5.25
2023-05-03T06:09:24.161Z,4.65
2023-05-03T06:11:51.537Z,5.30
2023-05-03T06:14:19.389Z,4.50
2023-05-03T06:16:46.435Z,4.13
2023-05-03T06:19:12.991Z,4.68
2023-05-03T06:21:39.494Z,4.70
2023-05-03T06:24:06.370Z,3.88
2023-05-03T06:26:33.011Z,3.83
2023-05-03T06:29:01.275Z,4.10
2023-05-03T06:31:28.068Z,4.13
2023-05-03T06:33:54.732Z,4.10
2023-05-03T06:36:22.218Z,3.80
2023-05-03T06:38:48.946Z,3.85
2023-05-03T06:41:15.493Z,3.63
2023-05-03T06:43:42.143Z,4.28
2023-05-03T06:46:08.844Z,3.67
2023-05-03T06:48:35.460Z,3.47
2023-05-03T06:51:02.036Z,2.78
2023-05-03T06:53:29.098Z,3.22
2023-05-03T06:55:57.450Z,3.00
2023-05-03T06:58:24.392Z,3.10
2023-05-03T07:00:54.086Z,2.65
2023-05-03T07:03:21.115Z,2.50
2023-05-03T07:05:48.349Z,2.20
2023-05-03T07:08:15.080Z,2.60
2023-05-03T07:10:41.934Z,2.50
2023-05-03T07:13:08.672Z,2.30
2023-05-03T07:15:35.387Z,2.78
2023-05-03T07:18:01.992Z,3.15
2023-05-03T07:20:29.402Z,2.33
2023-05-03T07:22:55.993Z,2.03
2023-05-03T07:25:22.569Z,2.05
2023-05-03T07:27:49.198Z,2.00
2023-05-03T07:30:16.003Z,2.20
2023-05-03T07:32:42.757Z,2.10
2023-05-03T07:35:09.778Z,2.38
2023-05-03T07:37:38.531Z,2.35
2023-05-03T07:40:07.166Z,1.95
2023-05-03T07:42:33.924Z,2.47
2023-05-03T07:45:01.193Z,2.35
2023-05-03T07:47:28.105Z,2.58
2023-05-03T07:49:54.930Z,2.67
2023-05-03T07:52:21.488Z,2.50
2023-05-03T07:54:48.026Z,2.55
2023-05-03T07:57:16.229Z,2.78
2023-05-03T07:59:43.532Z,2.38
2023-05-03T08:02:11.644Z,2.35
2023-05-03T08:04:38.708Z,2.85
2023-05-03T08:07:05.791Z,2.30
2023-05-03T08:09:32.462Z,2.15
2023-05-03T08:11:59.072Z,2.67
2023-05-03T08:14:25.842Z,1.95
2023-05-03T08:16:52.470Z,2.42
2023-05-03T08:19:19.129Z,2.22
2023-05-03T08:21:47.145Z,2.03
2023-05-03T08:24:16.025Z,2.92
2023-05-03T08:26:46.268Z,2.13
2023-05-03T08:29:13.386Z,2.53
2023-05-03T08:31:41.369Z,2.40
2023-05-03T08:34:11.112Z,2.70
2023-05-03T08:36:38.300Z,2.55
2023-05-03T08:39:08.088Z,2.42
2023-05-03T08:41:34.664Z,2.70
2023-05-03T08:44:02.202Z,2.30
2023-05-03T08:46:29.356Z,2.95
2023-05-03T08:48:56.285Z,1.85
2023-05-03T08:51:24.776Z,3.00
2023-05-03T08:53:52.801Z,3.05
2023-05-03T08:56:41.379Z,2.72
2023-05-03T08:59:09.117Z,2.10
2023-05-03T09:01:37.273Z,2.35
2023-05-03T09:04:04.392Z,2.20
2023-05-03T09:06:33.186Z,2.33
2023-05-03T09:09:00.996Z,2.08
2023-05-03T09:11:31.084Z,2.20
2023-05-03T09:14:15.493Z,2.55
2023-05-03T09:16:47.323Z,1.80
2023-05-03T09:19:15.866Z,2.22
2023-05-03T09:21:44.508Z,2.55
2023-05-03T09:24:19.026Z,2.50
2023-05-03T09:26:47.441Z,2.47
2023-05-03T09:29:35.986Z,2.67
2023-05-03T09:32:06.498Z,2.30
2023-05-03T09:34:34.076Z,2.10
2023-05-03T09:37:01.018Z,2.35
2023-05-03T09:39:27.719Z,2.35
2023-05-03T09:41:54.514Z,3.60
2023-05-03T09:44:42.771Z,2.60
2023-05-03T09:47:10.399Z,2.90
2023-05-03T09:49:38.470Z,2.38
2023-05-03T09:52:07.116Z,2.05
2023-05-03T09:54:37.842Z,2.30
2023-05-03T09:57:05.899Z,2.38
2023-05-03T09:59:33.986Z,2.33
2023-05-03T10:02:03.832Z,2.47
2023-05-03T10:04:39.163Z,2.50
2023-05-03T10:07:12.575Z,3.10
2023-05-03T10:09:42.782Z,2.50
2023-05-03T10:12:12.615Z,2.45
2023-05-03T10:14:44.545Z,2.80
2023-05-03T10:17:31.879Z,2.33
2023-05-03T10:20:32.612Z,2.28
2023-05-03T10:23:08.794Z,3.05
2023-05-03T10:25:37.187Z,3.35
2023-05-03T10:28:05.121Z,2.72
2023-05-03T10:30:34.881Z,2.45
2023-05-03T10:33:14.399Z,2.40
2023-05-03T10:35:45.329Z,2.70
2023-05-03T10:38:21.113Z,2.70
2023-05-03T10:40:48.122Z,2.90
2023-05-03T10:43:32.679Z,2.90
2023-05-03T10:45:59.766Z,3.20
2023-05-03T10:48:28.465Z,2.83
2023-05-03T10:50:56.242Z,2.70
2023-05-03T10:53:32.448Z,3.63
2023-05-03T10:56:05.870Z,2.95
2023-05-03T10:58:36.403Z,2.45
2023-05-03T11:01:04.897Z,2.97
2023-05-03T11:03:39.439Z,2.75
2023-05-03T11:06:07.352Z,3.20
2023-05-03T11:08:38.211Z,3.22
2023-05-03T11:11:10.045Z,2.78
2023-05-03T11:13:37.287Z,2.90
2023-05-03T11:16:06.391Z,2.60
2023-05-03T11:18:33.482Z,2.83
2023-05-03T11:21:00.229Z,3.25
2023-05-03T11:23:31.280Z,2.80
2023-05-03T11:25:58.346Z,2.58
2023-05-03T11:28:26.225Z,3.15
2023-05-03T11:30:53.186Z,3.20
2023-05-03T11:33:19.958Z,3.25
2023-05-03T11:35:48.206Z,2.80
2023-05-03T11:38:14.793Z,3.13
2023-05-03T11:40:41.722Z,3.63
2023-05-03T11:43:08.507Z,3.40
2023-05-03T11:45:41.038Z,3.20
2023-05-03T11:48:08.313Z,2.70
2023-05-03T11:50:48.344Z,2.45
2023-05-03T11:53:16.176Z,3.28
2023-05-03T11:55:48.291Z,3.13
2023-05-03T11:58:14.924Z,2.88
2023-05-03T12:00:46.726Z,3.15
2023-05-03T12:03:32.432Z,3.10
2023-05-03T12:06:01.839Z,2.92
2023-05-03T12:08:32.369Z,2.85
2023-05-03T12:11:03.208Z,4.63
2023-05-03T12:13:39.744Z,2.92
2023-05-03T12:16:13.355Z,3.30
2023-05-03T12:18:50.608Z,5.25
2023-05-03T12:23:55.636Z,2.72
2023-05-03T12:26:23.473Z,2.90
2023-05-03T12:28:50.690Z,3.28
2023-05-03T12:31:22.968Z,3.00
2023-05-03T12:34:12.233Z,2.80
2023-05-03T12:36:38.620Z,2.75
2023-05-03T12:39:10.026Z,2.60
2023-05-03T12:44:10.107Z,2.65
2023-05-03T12:46:38.514Z,2.90
2023-05-03T12:49:07.957Z,2.65
2023-05-03T12:51:36.324Z,2.80
2023-05-03T12:54:10.174Z,3.00
2023-05-03T12:56:40.332Z,3.10
2023-05-03T12:59:39.378Z,2.53
2023-05-03T13:04:55.925Z,2.97
2023-05-03T13:07:17.139Z,2.78
2023-05-03T13:12:33.396Z,2.63
2023-05-03T13:15:03.682Z,2.70
2023-05-03T13:17:31.623Z,2.88
2023-05-03T13:19:58.385Z,2.10
2023-05-03T13:22:25.010Z,2.60
2023-05-03T13:24:51.547Z,3.20
2023-05-03T13:27:18.289Z,2.50
2023-05-03T13:29:46.843Z,3.17
2023-05-03T13:32:15.213Z,2.80
2023-05-03T13:34:41.755Z,3.50
2023-05-03T13:37:08.353Z,2.65
2023-05-03T13:39:34.976Z,3.17
2023-05-03T13:42:02.416Z,3.70
2023-05-03T13:44:29.168Z,3.50
2023-05-03T13:46:56.498Z,2.72
2023-05-03T13:49:23.308Z,3.03
2023-05-03T13:51:49.922Z,2.95
2023-05-03T13:54:17.103Z,3.30
2023-05-03T13:56:44.012Z,2.67
2023-05-03T13:59:13.941Z,2.28
2023-05-03T14:01:41.311Z,3.10
2023-05-03T14:04:08.245Z,2.65
2023-05-03T14:06:35.024Z,2.83
2023-05-03T14:09:02.528Z,2.60
2023-05-03T14:11:30.587Z,2.78
2023-05-03T14:13:58.661Z,2.45
2023-05-03T14:16:39.930Z,2.92
2023-05-03T14:19:07.882Z,4.93
2023-05-03T14:21:34.600Z,3.28
2023-05-03T14:24:01.623Z,3.30
2023-05-03T14:26:29.549Z,2.97
2023-05-03T14:28:57.284Z,2.80
2023-05-03T14:31:24.086Z,2.70
2023-05-03T14:33:50.742Z,3.00
2023-05-03T14:36:17.441Z,3.10
2023-05-03T14:38:44.127Z,4.03
2023-05-03T14:41:10.964Z,3.30
2023-05-03T14:43:37.859Z,3.47
2023-05-03T14:46:04.593Z,3.17
2023-05-03T14:48:31.165Z,2.72
2023-05-03T14:50:57.811Z,2.47
2023-05-03T14:53:24.476Z,3.15
2023-05-03T14:55:51.436Z,2.95
2023-05-03T14:58:18.645Z,3.00
2023-05-03T15:00:45.722Z,2.83
2023-05-03T15:03:13.877Z,3.05
2023-05-03T15:05:48.359Z,3.38
2023-05-03T15:08:16.793Z,3.58
2023-05-03T15:10:44.966Z,2.88
2023-05-03T15:13:12.699Z,2.92
2023-05-03T15:15:40.534Z,3.50
2023-05-03T15:18:09.059Z,2.28
2023-05-03T15:20:36.299Z,2.90
2023-05-03T15:23:03.958Z,2.63
2023-05-03T15:25:31.076Z,2.92
2023-05-03T15:27:57.657Z,2.95
2023-05-03T15:30:24.970Z,2.63
2023-05-03T15:32:51.861Z,2.75
2023-05-03T15:35:18.457Z,2.72
2023-05-03T15:37:45.192Z,2.67
2023-05-03T15:40:13.331Z,2.42
2023-05-03T15:42:39.988Z,3.45
2023-05-03T15:45:09.591Z,3.03
2023-05-03T15:47:36.330Z,2.50
2023-05-03T15:50:03.819Z,2.50
2023-05-03T15:52:31.018Z,2.30
2023-05-03T15:54:58.399Z,2.50
2023-05-03T15:57:25.016Z,2.50
2023-05-03T15:59:51.636Z,2.50
2023-05-03T16:02:18.212Z,2.80
2023-05-03T16:04:44.889Z,2.67
2023-05-03T16:07:12.609Z,2.85
2023-05-03T16:09:39.647Z,3.10
2023-05-03T16:12:07.409Z,3.00
2023-05-03T16:14:34.294Z,3.03
2023-05-03T16:17:02.236Z,2.50
2023-05-03T16:19:29.261Z,2.65
2023-05-03T16:21:56.190Z,2.60
2023-05-03T16:24:22.907Z,2.95
2023-05-03T16:26:50.925Z,2.97
2023-05-03T16:29:18.084Z,3.00
2023-05-03T16:31:46.492Z,2.28
2023-05-03T16:34:13.777Z,3.30
2023-05-03T16:36:44.077Z,3.20
2023-05-03T16:39:12.410Z,2.95
2023-05-03T16:41:39.535Z,2.90
2023-05-03T16:44:08.012Z,3.05
2023-05-03T16:46:36.156Z,2.80
2023-05-03T16:49:03.814Z,2.85
2023-05-03T16:51:31.661Z,3.05
2023-05-03T16:53:59.576Z,2.80
2023-05-03T16:56:28.657Z,2.58
2023-05-03T16:58:56.443Z,2.72
2023-05-03T17:01:23.082Z,2.83
2023-05-03T17:03:50.254Z,2.67
2023-05-03T17:06:18.356Z,2.38
2023-05-03T17:08:45.457Z,2.78
2023-05-03T17:11:13.924Z,3.15
2023-05-03T17:13:40.843Z,2.70
2023-05-03T17:16:08.922Z,3.28
2023-05-03T17:18:37.765Z,3.08
2023-05-03T17:21:05.127Z,2.75
2023-05-03T17:23:36.224Z,2.90
2023-05-03T17:26:04.665Z,3.15
2023-05-03T17:28:32.801Z,3.13
2023-05-03T17:31:00.065Z,3.38
2023-05-03T17:33:27.085Z,2.85
2023-05-03T17:35:55.584Z,2.80
2023-05-03T17:38:23.316Z,3.00
2023-05-03T17:40:49.898Z,2.55
2023-05-03T17:43:17.729Z,2.55
2023-05-03T17:45:45.967Z,2.40
2023-05-03T17:48:13.207Z,2.40
2023-05-03T17:50:41.646Z,2.65
2023-05-03T17:53:09.753Z,2.72
2023-05-03T17:55:38.195Z,2.72
2023-05-03T17:58:06.284Z,3.15
2023-05-03T18:00:33.735Z,2.55
2023-05-03T18:03:00.890Z,2.92
2023-05-03T18:05:28.073Z,2.60
2023-05-03T18:07:54.726Z,2.72
2023-05-03T18:10:22.292Z,2.58
2023-05-03T18:12:49.124Z,2.90
2023-05-03T18:15:16.172Z,3.13
2023-05-03T18:17:43.473Z,2.92
2023-05-03T18:20:10.664Z,2.85
2023-05-03T18:22:38.134Z,3.08
2023-05-03T18:25:07.962Z,2.88
2023-05-03T18:27:37.590Z,2.28
2023-05-03T18:30:06.753Z,2.75
2023-05-03T18:32:34.032Z,2.80
2023-05-03T18:35:01.177Z,2.17
2023-05-03T18:37:27.890Z,3.10
2023-05-03T18:39:57.250Z,2.70
2023-05-03T18:42:23.927Z,2.30
2023-05-03T18:44:50.541Z,2.30
2023-05-03T18:47:21.835Z,2.80
2023-05-03T18:49:53.084Z,2.65
2023-05-03T18:52:21.001Z,2.33
2023-05-03T18:54:48.030Z,2.92
2023-05-03T18:57:14.776Z,2.50
2023-05-03T18:59:52.349Z,2.80
2023-05-03T19:02:25.393Z,3.38
2023-05-03T19:04:52.678Z,2.97
2023-05-03T19:07:19.443Z,3.63
2023-05-03T19:09:45.955Z,3.00
2023-05-03T19:12:13.602Z,2.85
2023-05-03T19:14:42.991Z,3.00
2023-05-03T19:17:09.606Z,2.97
2023-05-03T19:19:36.268Z,3.22
2023-05-03T19:22:04.137Z,3.60
2023-05-03T19:24:31.458Z,3.30
2023-05-03T19:26:58.171Z,3.35
2023-05-03T19:29:24.880Z,2.75
2023-05-03T19:31:54.198Z,3.50
2023-05-03T19:34:20.899Z,3.78
2023-05-03T19:36:47.461Z,3.00
2023-05-03T19:39:14.052Z,3.20
2023-05-03T19:41:40.544Z,3.45
2023-05-03T19:44:07.181Z,3.95
2023-05-03T19:46:34.372Z,3.33
2023-05-03T19:49:01.768Z,3.53
2023-05-03T19:51:28.588Z,2.97
2023-05-03T19:53:56.369Z,3.47
2023-05-03T19:56:23.379Z,4.10
2023-05-03T19:58:50.805Z,3.33
2023-05-03T20:01:17.609Z,4.05
2023-05-03T20:03:44.618Z,3.38
2023-05-03T20:06:11.272Z,3.40
2023-05-03T20:08:37.840Z,3.78
2023-05-03T20:11:04.478Z,3.65
2023-05-03T20:13:31.256Z,4.03
2023-05-03T20:15:57.938Z,3.72
2023-05-03T20:18:24.561Z,3.55
2023-05-03T20:20:51.256Z,3.80
2023-05-03T20:23:18.094Z,3.58
2023-05-03T20:25:44.720Z,3.20
2023-05-03T20:28:11.278Z,4.55
2023-05-03T20:30:37.882Z,4.25
2023-05-03T20:33:04.763Z,4.13
2023-05-03T20:35:31.535Z,3.88
2023-05-03T20:37:58.269Z,4.72
2023-05-03T20:40:25.277Z,4.65
2023-05-03T20:42:51.906Z,4.30
2023-05-03T20:45:18.606Z,4.65
2023-05-03T20:47:45.406Z,4.40
2023-05-03T20:50:12.003Z,4.18
2023-05-03T20:52:38.689Z,4.25
2023-05-03T20:55:05.552Z,4.30
2023-05-03T20:57:32.156Z,3.75
2023-05-03T21:00:00.034Z,3.20
2023-05-03T21:02:26.877Z,3.88
2023-05-03T21:04:53.466Z,3.85
2023-05-03T21:07:22.608Z,4.07
2023-05-03T21:09:49.189Z,4.43
2023-05-03T21:12:15.811Z,4.15
2023-05-03T21:14:42.453Z,4.40
2023-05-03T21:17:09.930Z,3.90
2023-05-03T21:19:36.429Z,4.85
2023-05-03T21:22:02.925Z,4.07
2023-05-03T21:24:31.033Z,5.43
2023-05-03T21:26:58.807Z,4.93
2023-05-03T21:29:25.407Z,6.22
2023-05-03T21:31:52.482Z,6.15
2023-05-03T21:34:19.251Z,4.65
2023-05-03T21:36:45.748Z,5.45
2023-05-03T21:39:12.581Z,4.97
2023-05-03T21:41:39.323Z,4.88
2023-05-03T21:44:05.987Z,4.72
2023-05-03T21:46:33.221Z,5.53
2023-05-03T21:48:59.813Z,5.38
2023-05-03T21:51:26.883Z,5.10
2023-05-03T21:53:53.513Z,5.40
2023-05-03T21:56:20.220Z,5.32
2023-05-03T21:58:46.814Z,5.28
2023-05-03T22:01:16.315Z,4.82
2023-05-03T22:03:43.067Z,5.90
2023-05-03T22:06:09.750Z,5.68
2023-05-03T22:08:36.914Z,6.15
2023-05-03T22:11:07.324Z,6.47
2023-05-03T22:13:43.179Z,5.78
2023-05-03T22:16:18.341Z,6.28
2023-05-03T22:18:45.000Z,5.80
2023-05-03T22:21:11.672Z,6.50
2023-05-03T22:23:38.362Z,5.55
2023-05-03T22:26:04.961Z,5.28
2023-05-03T22:28:31.628Z,5.57
2023-05-03T22:30:58.298Z,5.80
2023-05-03T22:33:25.092Z,6.35
2023-05-03T22:35:52.361Z,5.90
2023-05-03T22:38:18.927Z,5.78
2023-05-03T22:40:46.406Z,6.35
2023-05-03T22:43:12.943Z,5.38
2023-05-03T22:45:39.475Z,5.45
2023-05-03T22:48:06.248Z,6.07
2023-05-03T22:50:32.840Z,6.22
2023-05-03T22:52:59.398Z,6.55
2023-05-03T22:55:26.281Z,6.43
2023-05-03T22:57:52.887Z,6.07
2023-05-03T23:00:21.421Z,5.78
2023-05-03T23:02:48.718Z,5.93
2023-05-03T23:05:15.836Z,6.68
2023-05-03T23:07:43.687Z,6.05
2023-05-03T23:10:11.108Z,6.35
2023-05-03T23:12:38.233Z,6.05
2023-05-03T23:15:06.014Z,6.30
2023-05-03T23:17:32.580Z,6.53
2023-05-03T23:19:59.687Z,6.82
2023-05-03T23:22:26.258Z,6.07
2023-05-03T23:24:52.847Z,6.53
2023-05-03T23:27:19.363Z,6.78
2023-05-03T23:29:48.143Z,6.70
2023-05-03T23:32:15.296Z,6.55
2023-05-03T23:34:42.866Z,6.53
2023-05-03T23:37:09.566Z,6.68
2023-05-03T23:39:36.576Z,6.18
2023-05-03T23:42:03.279Z,6.75
2023-05-03T23:44:42.199Z,6.05
2023-05-03T23:47:16.472Z,6.55
2023-05-03T23:49:42.998Z,6.25
2023-05-03T23:52:09.940Z,6.35
2023-05-03T23:54:36.709Z,6.57
2023-05-03T23:57:03.329Z,6.90
2023-05-03T23:59:29.887Z,6.82
